Boulevard, New York
Current Conditions -  °F | °C
As of 5:51 AM on Friday 28 Nov 2014 (Local Time) from KLGA Reporting Station
Few Clouds Few Clouds  
Wind Chill: 22°   Ceiling: Unl
Heat Index: 32°   Visibility: 10mi
Dew Point: 23°   Wind: 14mph
Humidity: 69%   Direction: 310°NW
Pressure: 30.1"   Gusts: NA
Location:  40.8106°N, 73.8845°W
Report Text: KLGA 281051Z 31012KT 10SM FEW110 00/M05 A3010 RMK AO2 SLP193 T00001050
Loading
Personal Weather Stations






























Interactive Weather Map New forecast layout! Learn more

10-Day Weather Forecast

Advertisements
Track Severe Weather on mobile